Terminal Aerodrome Forecast
Issued by NWS

Home | Current Version | Previous Version | Text Only | Print | Product List | Glossary On
Versions: 1 2 3 4 5 6 7 8 9 10 11 12 13 14
000
FTUS44 KJAN 171100
TAFGTR
TAF
KGTR 171124Z 1712/1812 00000KT 4SM BR OVC005
     FM171300 36005KT P6SM FEW040
     FM180000 01003KT P6SM FEW250=

USA.gov is the U.S. government's official web portal to all federal, state and local government web resources and services.